createdAt,value
2019-02-24T00:00:14.226Z,16.90
2019-02-24T00:01:14.199Z,16.10
2019-02-24T00:02:14.193Z,17.70
2019-02-24T00:03:14.179Z,17.20
2019-02-24T00:04:14.165Z,16.90
2019-02-24T00:05:14.182Z,17.20
2019-02-24T00:06:14.143Z,17.90
2019-02-24T00:07:14.150Z,16.50
2019-02-24T00:08:14.126Z,17.70
2019-02-24T00:09:14.111Z,17.20
2019-02-24T00:10:14.127Z,16.70
2019-02-24T00:11:14.102Z,17.70
2019-02-24T00:12:14.104Z,15.80
2019-02-24T00:13:14.075Z,18.20
2019-02-24T00:14:14.061Z,16.90
2019-02-24T00:15:14.044Z,17.60
2019-02-24T00:16:14.058Z,17.20
2019-02-24T00:17:14.023Z,18.60
2019-02-24T00:18:14.017Z,17.50
2019-02-24T00:19:14.001Z,18.00
2019-02-24T00:20:13.994Z,16.30
2019-02-24T00:21:14.006Z,15.80
2019-02-24T00:22:13.978Z,16.80
2019-02-24T00:23:13.968Z,16.60
2019-02-24T00:24:13.947Z,19.60
2019-02-24T00:25:13.938Z,19.90
2019-02-24T00:26:13.949Z,18.50
2019-02-24T00:27:13.914Z,18.60
2019-02-24T00:28:13.913Z,19.00
2019-02-24T00:29:13.904Z,17.50
2019-02-24T00:30:13.905Z,18.30
2019-02-24T00:31:13.905Z,21.50
2019-02-24T00:32:13.862Z,18.80
2019-02-24T00:33:13.848Z,18.00
2019-02-24T00:34:13.844Z,21.20
2019-02-24T00:35:13.834Z,21.10
2019-02-24T00:36:13.843Z,21.40
2019-02-24T00:37:13.826Z,18.60
2019-02-24T00:38:13.796Z,18.30
2019-02-24T00:39:13.790Z,20.10
2019-02-24T00:40:13.784Z,16.20
2019-02-24T00:41:13.771Z,18.10
2019-02-24T00:42:13.770Z,19.20
2019-02-24T00:43:13.749Z,17.30
2019-02-24T00:44:13.730Z,16.70
2019-02-24T00:45:13.728Z,17.50
2019-02-24T00:46:13.710Z,18.10
2019-02-24T00:47:13.718Z,17.80
2019-02-24T00:48:13.689Z,17.50
2019-02-24T00:49:13.676Z,18.00
2019-02-24T00:50:13.667Z,17.70
2019-02-24T00:51:13.657Z,20.10
2019-02-24T00:52:13.664Z,19.50
2019-02-24T00:53:13.650Z,16.20
2019-02-24T00:54:13.630Z,16.60
2019-02-24T00:55:13.612Z,19.10
2019-02-24T00:56:13.603Z,17.30
2019-02-24T00:57:13.614Z,18.60
2019-02-24T00:58:16.175Z,18.20
2019-02-24T00:59:13.573Z,20.00
2019-02-24T01:00:13.565Z,21.30
2019-02-24T01:01:13.561Z,17.90
2019-02-24T01:02:13.563Z,18.30
2019-02-24T01:03:13.532Z,18.50
2019-02-24T01:04:13.516Z,17.10
2019-02-24T01:05:13.509Z,16.30
2019-02-24T01:06:13.498Z,18.40
2019-02-24T01:07:13.505Z,16.90
2019-02-24T01:08:13.471Z,17.30
2019-02-24T01:09:13.463Z,18.90
2019-02-24T01:10:13.461Z,18.20
2019-02-24T01:11:13.439Z,18.60
2019-02-24T01:12:13.455Z,18.10
2019-02-24T01:13:13.420Z,18.50
2019-02-24T01:14:13.407Z,18.90
2019-02-24T01:15:13.395Z,16.70
2019-02-24T01:16:13.384Z,18.00
2019-02-24T01:17:13.379Z,18.10
2019-02-24T01:18:13.392Z,16.70
2019-02-24T01:19:13.355Z,18.40
2019-02-24T01:20:13.344Z,18.70
2019-02-24T01:21:13.330Z,18.80
2019-02-24T01:22:13.320Z,18.70
2019-02-24T01:23:13.325Z,18.60
2019-02-24T01:24:13.314Z,17.10
2019-02-24T01:25:13.293Z,18.30
2019-02-24T01:26:13.276Z,18.70
2019-02-24T01:27:13.273Z,17.70
2019-02-24T01:28:13.270Z,17.30
2019-02-24T01:29:13.244Z,17.60
2019-02-24T01:30:13.238Z,16.70
2019-02-24T01:31:13.225Z,18.50
2019-02-24T01:32:13.215Z,19.20
2019-02-24T01:33:13.229Z,19.20
2019-02-24T01:34:13.192Z,17.90
2019-02-24T01:35:13.180Z,19.20
2019-02-24T01:36:13.168Z,19.10
2019-02-24T01:37:13.160Z,18.00
2019-02-24T01:38:13.167Z,18.40
2019-02-24T01:39:13.146Z,17.40
2019-02-24T01:40:13.128Z,17.60
2019-02-24T01:41:13.121Z,17.50
2019-02-24T01:42:13.110Z,18.70
2019-02-24T01:43:13.118Z,17.40
2019-02-24T01:44:13.106Z,18.30
2019-02-24T01:45:13.077Z,18.40
2019-02-24T01:46:13.066Z,18.10
2019-02-24T01:47:13.053Z,18.30
2019-02-24T01:48:13.072Z,17.00
2019-02-24T01:49:13.053Z,16.80
2019-02-24T01:50:13.017Z,18.80
2019-02-24T01:51:13.008Z,17.80
2019-02-24T01:52:13.019Z,22.70
2019-02-24T01:53:12.985Z,18.60
2019-02-24T01:54:13.007Z,18.90
2019-02-24T01:55:12.964Z,18.30
2019-02-24T01:56:12.967Z,18.00
2019-02-24T01:57:12.949Z,18.10
2019-02-24T01:58:12.931Z,19.10
2019-02-24T01:59:12.937Z,19.20
2019-02-24T02:00:12.920Z,19.10
2019-02-24T02:01:12.893Z,16.80
2019-02-24T02:02:12.889Z,19.10
2019-02-24T02:03:12.890Z,17.80
2019-02-24T02:04:12.902Z,17.60
2019-02-24T02:05:12.857Z,21.10
2019-02-24T02:06:12.859Z,19.00
2019-02-24T02:07:12.835Z,19.00
2019-02-24T02:08:12.823Z,17.60
2019-02-24T02:09:12.813Z,17.90
2019-02-24T02:10:12.832Z,19.80
2019-02-24T02:11:12.790Z,18.20
2019-02-24T02:12:12.782Z,19.00
2019-02-24T02:13:12.767Z,18.40
2019-02-24T02:14:12.757Z,17.70
2019-02-24T02:15:12.777Z,17.70
2019-02-24T02:16:12.744Z,19.10
2019-02-24T02:17:12.724Z,18.70
2019-02-24T02:18:12.714Z,18.20
2019-02-24T02:19:12.733Z,18.90
2019-02-24T02:20:12.692Z,19.20
2019-02-24T02:21:12.683Z,17.40
2019-02-24T02:22:12.678Z,19.70
2019-02-24T02:23:12.661Z,18.90
2019-02-24T02:24:12.652Z,15.90
2019-02-24T02:25:12.661Z,18.60
2019-02-24T02:26:12.628Z,20.90
2019-02-24T02:27:12.627Z,18.50
2019-02-24T02:28:12.606Z,19.10
2019-02-24T02:29:12.596Z,18.90
2019-02-24T02:30:12.611Z,17.60
2019-02-24T02:31:12.575Z,17.90
2019-02-24T02:32:12.567Z,18.10
2019-02-24T02:33:12.552Z,17.60
2019-02-24T02:34:12.541Z,18.20
2019-02-24T02:35:12.536Z,17.00
2019-02-24T02:36:12.540Z,18.40
2019-02-24T02:37:12.520Z,17.60
2019-02-24T02:38:12.508Z,18.20
2019-02-24T02:39:12.490Z,16.70
2019-02-24T02:40:12.502Z,18.90
2019-02-24T02:41:12.481Z,16.60
2019-02-24T02:42:12.461Z,17.30
2019-02-24T02:43:12.446Z,18.20
2019-02-24T02:44:12.436Z,16.40
2019-02-24T02:45:12.455Z,16.10
2019-02-24T02:46:12.413Z,18.70
2019-02-24T02:47:12.401Z,18.00
2019-02-24T02:48:12.410Z,18.10
2019-02-24T02:49:12.382Z,17.30
2019-02-24T02:50:12.392Z,16.50
2019-02-24T02:51:12.375Z,18.50
2019-02-24T02:52:12.349Z,18.70
2019-02-24T02:53:12.338Z,18.10
2019-02-24T02:54:12.331Z,17.60
2019-02-24T02:55:12.354Z,18.50
2019-02-24T02:56:13.177Z,17.60
2019-02-24T02:57:12.293Z,16.60
2019-02-24T02:58:12.286Z,17.00
2019-02-24T02:59:12.270Z,17.10
2019-02-24T03:00:12.266Z,17.90
2019-02-24T03:01:12.273Z,16.00
2019-02-24T03:02:12.240Z,19.00
2019-02-24T03:03:12.228Z,16.10
2019-02-24T03:04:12.219Z,19.00
2019-02-24T03:05:12.207Z,16.80
2019-02-24T03:06:12.213Z,18.60
2019-02-24T03:07:12.192Z,19.00
2019-02-24T03:08:12.174Z,18.00
2019-02-24T03:09:12.163Z,18.10
2019-02-24T03:10:12.154Z,17.30
2019-02-24T03:11:12.181Z,19.20
2019-02-24T03:12:12.131Z,17.20
2019-02-24T03:13:12.137Z,17.00
2019-02-24T03:14:12.109Z,17.30
2019-02-24T03:15:12.099Z,18.10
2019-02-24T03:16:12.086Z,18.60
2019-02-24T03:17:12.094Z,17.90
2019-02-24T03:18:12.065Z,17.70
2019-02-24T03:19:12.059Z,16.70
2019-02-24T03:20:12.053Z,16.90
2019-02-24T03:21:12.033Z,17.80
2019-02-24T03:22:12.042Z,18.90
2019-02-24T03:23:12.014Z,18.50
2019-02-24T03:24:12.005Z,16.90
2019-02-24T03:25:12.007Z,18.10
2019-02-24T03:26:11.995Z,18.20
2019-02-24T03:27:12.039Z,18.20
2019-02-24T03:28:11.964Z,17.60
2019-02-24T03:29:11.947Z,17.60
2019-02-24T03:30:11.943Z,20.50
2019-02-24T03:31:11.924Z,18.90
2019-02-24T03:32:11.961Z,16.90
2019-02-24T03:33:11.905Z,17.00
2019-02-24T03:34:11.894Z,17.10
2019-02-24T03:35:11.880Z,15.20
2019-02-24T03:36:11.872Z,15.40
2019-02-24T03:37:11.860Z,18.80
2019-02-24T03:38:11.876Z,16.60
2019-02-24T03:39:11.843Z,16.80
2019-02-24T03:40:11.829Z,15.80
2019-02-24T03:41:11.824Z,16.40
2019-02-24T03:42:11.827Z,16.60
2019-02-24T03:43:11.794Z,16.10
2019-02-24T03:44:11.790Z,17.40
2019-02-24T03:45:11.777Z,15.00
2019-02-24T03:46:11.769Z,17.90
2019-02-24T03:47:11.751Z,16.60
2019-02-24T03:48:11.757Z,15.70
2019-02-24T03:49:11.730Z,16.40
2019-02-24T03:50:11.756Z,16.40
2019-02-24T03:51:11.719Z,14.90
2019-02-24T03:52:11.699Z,18.10
2019-02-24T03:53:11.703Z,16.80
2019-02-24T03:54:11.679Z,15.10
2019-02-24T03:55:11.664Z,15.10
2019-02-24T03:56:11.655Z,14.40
2019-02-24T03:57:11.650Z,15.10
2019-02-24T03:58:11.657Z,16.60
2019-02-24T03:59:15.065Z,14.10
2019-02-24T04:00:11.630Z,14.90
2019-02-24T04:01:11.601Z,15.90
2019-02-24T04:02:11.589Z,15.50
2019-02-24T04:03:11.595Z,16.50
2019-02-24T04:04:11.580Z,15.50
2019-02-24T04:05:11.599Z,15.10
2019-02-24T04:06:11.550Z,17.30
2019-02-24T04:07:11.540Z,15.80
2019-02-24T04:08:11.545Z,16.50
2019-02-24T04:09:11.550Z,16.90
2019-02-24T04:10:11.504Z,16.70
2019-02-24T04:11:11.498Z,17.00
2019-02-24T04:12:11.482Z,16.80
2019-02-24T04:13:11.491Z,19.30
2019-02-24T04:14:11.459Z,18.20
2019-02-24T04:15:11.457Z,19.40
2019-02-24T04:16:11.455Z,17.30
2019-02-24T04:17:11.429Z,16.30
2019-02-24T04:18:11.457Z,17.10
2019-02-24T04:19:11.408Z,16.40
2019-02-24T04:20:11.396Z,15.90
2019-02-24T04:21:11.395Z,16.10
2019-02-24T04:22:11.389Z,16.10
2019-02-24T04:23:11.366Z,15.70
2019-02-24T04:24:11.383Z,15.70
2019-02-24T04:25:11.344Z,17.10
2019-02-24T04:26:11.344Z,14.90
2019-02-24T04:27:11.819Z,15.70
2019-02-24T04:28:11.316Z,16.30
2019-02-24T04:29:11.319Z,14.70
2019-02-24T04:30:11.291Z,15.20
2019-02-24T04:31:11.278Z,15.50
2019-02-24T04:32:11.269Z,16.30
2019-02-24T04:33:11.259Z,16.40
2019-02-24T04:34:11.261Z,15.60
2019-02-24T04:35:11.237Z,16.20
2019-02-24T04:36:11.241Z,14.50
2019-02-24T04:37:11.214Z,14.80
2019-02-24T04:38:11.209Z,17.50
2019-02-24T04:39:11.210Z,17.30
2019-02-24T04:40:11.182Z,16.20
2019-02-24T04:41:11.169Z,16.40
2019-02-24T04:42:11.162Z,16.70
2019-02-24T04:43:11.147Z,18.60
2019-02-24T04:44:11.160Z,17.30
2019-02-24T04:45:11.127Z,17.90
2019-02-24T04:46:11.116Z,17.00
2019-02-24T04:47:11.111Z,16.20
2019-02-24T04:48:11.100Z,16.30
2019-02-24T04:49:11.088Z,16.50
2019-02-24T04:50:11.093Z,17.50
2019-02-24T04:51:11.067Z,17.50
2019-02-24T04:52:11.055Z,17.50
2019-02-24T04:53:11.053Z,16.00
2019-02-24T04:54:11.035Z,15.60
2019-02-24T04:55:11.035Z,15.80
2019-02-24T04:56:11.033Z,18.20
2019-02-24T04:57:10.994Z,14.80
2019-02-24T04:58:11.004Z,17.50
2019-02-24T04:59:10.974Z,15.60
2019-02-24T05:00:10.980Z,15.70
2019-02-24T05:01:10.951Z,13.00
2019-02-24T05:02:10.940Z,15.30
2019-02-24T05:03:10.936Z,18.20
2019-02-24T05:04:10.928Z,15.80
2019-02-24T05:05:10.924Z,16.00
2019-02-24T05:06:10.915Z,15.10
2019-02-24T05:07:10.885Z,14.50
2019-02-24T05:08:10.884Z,13.20
2019-02-24T05:09:10.877Z,14.20
2019-02-24T05:10:10.856Z,15.20
2019-02-24T05:11:10.874Z,14.30
2019-02-24T05:12:10.840Z,14.50
2019-02-24T05:13:10.829Z,12.90
2019-02-24T05:14:10.816Z,14.60
2019-02-24T05:15:10.805Z,15.20
2019-02-24T05:16:10.809Z,14.80
2019-02-24T05:17:10.778Z,14.10
2019-02-24T05:18:10.776Z,14.70
2019-02-24T05:19:10.757Z,15.70
2019-02-24T05:20:10.744Z,15.90
2019-02-24T05:21:10.764Z,15.40
2019-02-24T05:22:10.724Z,15.50
2019-02-24T05:23:10.723Z,13.60
2019-02-24T05:24:10.702Z,14.10
2019-02-24T05:25:10.692Z,15.10
2019-02-24T05:26:10.679Z,13.00
2019-02-24T05:27:10.689Z,15.60
2019-02-24T05:28:10.665Z,13.80
2019-02-24T05:29:10.661Z,15.50
2019-02-24T05:30:10.636Z,13.80
2019-02-24T05:31:10.633Z,12.50
2019-02-24T05:32:10.631Z,12.50
2019-02-24T05:33:10.601Z,15.40
2019-02-24T05:34:10.592Z,13.60
2019-02-24T05:35:10.585Z,13.10
2019-02-24T05:36:10.587Z,11.00
2019-02-24T05:37:10.574Z,12.40
2019-02-24T05:38:10.564Z,11.90
2019-02-24T05:39:10.539Z,11.10
2019-02-24T05:40:10.531Z,12.10
2019-02-24T05:41:10.522Z,11.00
2019-02-24T05:42:10.525Z,12.20
2019-02-24T05:43:10.494Z,12.10
2019-02-24T05:44:10.488Z,13.30
2019-02-24T05:45:10.471Z,12.20
2019-02-24T05:46:10.463Z,10.90
2019-02-24T05:47:10.460Z,10.40
2019-02-24T05:48:10.462Z,11.60
2019-02-24T05:49:10.431Z,12.30
2019-02-24T05:50:10.426Z,12.20
2019-02-24T05:51:10.406Z,11.80
2019-02-24T05:52:10.413Z,11.80
2019-02-24T05:53:10.424Z,13.20
2019-02-24T05:54:10.376Z,12.50
2019-02-24T05:55:10.365Z,12.70
2019-02-24T05:56:10.364Z,11.80
2019-02-24T05:57:10.343Z,11.60
2019-02-24T05:58:10.350Z,11.10
2019-02-24T05:59:10.328Z,12.40
2019-02-24T06:00:10.311Z,12.40
2019-02-24T06:01:10.333Z,12.20
2019-02-24T06:02:10.287Z,11.10
2019-02-24T06:03:10.295Z,11.10
2019-02-24T06:04:10.264Z,12.90
2019-02-24T06:05:10.274Z,11.20
2019-02-24T06:06:10.250Z,13.50
2019-02-24T06:07:10.238Z,10.90
2019-02-24T06:08:10.247Z,13.20
2019-02-24T06:09:10.218Z,12.00
2019-02-24T06:10:10.215Z,10.90
2019-02-24T06:11:10.241Z,11.20
2019-02-24T06:12:10.185Z,12.60
2019-02-24T06:13:10.191Z,12.10
2019-02-24T06:14:10.182Z,12.60
2019-02-24T06:15:10.153Z,11.10
2019-02-24T06:16:10.141Z,10.80
2019-02-24T06:17:10.137Z,11.10
2019-02-24T06:18:10.129Z,12.80
2019-02-24T06:19:10.119Z,10.10
2019-02-24T06:20:10.093Z,12.00
2019-02-24T06:21:10.095Z,11.10
2019-02-24T06:22:10.073Z,12.60
2019-02-24T06:23:10.061Z,10.80
2019-02-24T06:24:10.086Z,10.70
2019-02-24T06:25:10.041Z,12.50
2019-02-24T06:26:10.037Z,10.80
2019-02-24T06:27:10.017Z,14.00
2019-02-24T06:28:10.025Z,14.90
2019-02-24T06:29:10.015Z,14.40
2019-02-24T06:30:09.989Z,15.50
2019-02-24T06:31:09.978Z,14.90
2019-02-24T06:32:09.969Z,16.10
2019-02-24T06:33:09.953Z,13.60
2019-02-24T06:34:09.961Z,13.60
2019-02-24T06:35:09.941Z,14.60
2019-02-24T06:36:09.920Z,14.80
2019-02-24T06:37:09.919Z,14.40
2019-02-24T06:38:09.908Z,14.90
2019-02-24T06:39:09.902Z,13.60
2019-02-24T06:40:09.874Z,13.20
2019-02-24T06:41:09.875Z,12.30
2019-02-24T06:42:09.857Z,13.70
2019-02-24T06:43:09.844Z,13.20
2019-02-24T06:44:09.859Z,11.80
2019-02-24T06:45:09.837Z,14.60
2019-02-24T06:46:09.813Z,12.80
2019-02-24T06:47:09.809Z,12.60
2019-02-24T06:48:09.801Z,12.40
2019-02-24T06:49:09.782Z,11.00
2019-02-24T06:50:09.800Z,13.10
2019-02-24T06:51:09.766Z,12.00
2019-02-24T06:52:09.746Z,11.60
2019-02-24T06:53:09.768Z,14.10
2019-02-24T06:54:09.723Z,12.60
2019-02-24T06:55:09.727Z,10.60
2019-02-24T06:56:09.710Z,10.80
2019-02-24T06:57:09.698Z,11.90
2019-02-24T06:58:09.680Z,12.10
2019-02-24T06:59:09.684Z,10.40
2019-02-24T07:00:14.110Z,10.90
2019-02-24T07:01:09.651Z,10.50
2019-02-24T07:02:09.645Z,11.30
2019-02-24T07:03:09.634Z,10.60
2019-02-24T07:04:09.623Z,12.40
2019-02-24T07:05:09.630Z,11.00
2019-02-24T07:06:09.594Z,10.80
2019-02-24T07:07:09.582Z,11.40
2019-02-24T07:08:09.574Z,11.00
2019-02-24T07:09:09.574Z,11.70
2019-02-24T07:10:09.581Z,9.80
2019-02-24T07:11:09.546Z,11.40
2019-02-24T07:12:09.530Z,10.90
2019-02-24T07:13:09.519Z,9.90
2019-02-24T07:14:09.507Z,10.00
2019-02-24T07:15:09.551Z,11.60
2019-02-24T07:16:09.513Z,10.40
2019-02-24T07:17:09.474Z,10.10
2019-02-24T07:18:09.462Z,11.20
2019-02-24T07:19:09.452Z,10.70
2019-02-24T07:20:09.460Z,11.00
2019-02-24T07:21:09.436Z,10.50
2019-02-24T07:22:09.434Z,9.10
2019-02-24T07:23:09.425Z,9.40
2019-02-24T07:24:09.400Z,10.50
2019-02-24T07:25:09.395Z,9.70
2019-02-24T07:26:09.406Z,12.10
2019-02-24T07:27:09.372Z,9.80
2019-02-24T07:28:09.353Z,9.50
2019-02-24T07:29:09.343Z,9.40
2019-02-24T07:30:09.331Z,10.10
2019-02-24T07:31:09.326Z,8.90
2019-02-24T07:32:09.327Z,9.70
2019-02-24T07:33:09.301Z,9.10
2019-02-24T07:34:09.296Z,9.80
2019-02-24T07:35:09.288Z,9.10
2019-02-24T07:36:09.265Z,9.80
2019-02-24T07:37:13.006Z,8.90
2019-02-24T07:38:09.242Z,8.80
2019-02-24T07:39:09.234Z,9.80
2019-02-24T07:40:09.228Z,9.80
2019-02-24T07:41:09.213Z,10.30
2019-02-24T07:42:09.221Z,10.60
2019-02-24T07:43:09.194Z,11.10
2019-02-24T07:44:09.201Z,10.70
2019-02-24T07:45:09.188Z,9.90
2019-02-24T07:46:09.176Z,10.80
2019-02-24T07:47:09.187Z,10.70
2019-02-24T07:48:09.157Z,10.30
2019-02-24T07:49:09.131Z,9.20
2019-02-24T07:50:09.132Z,9.40
2019-02-24T07:51:09.123Z,10.40
2019-02-24T07:52:09.117Z,9.70
2019-02-24T07:53:09.087Z,9.40
2019-02-24T07:54:09.086Z,8.80
2019-02-24T07:55:09.079Z,9.80
2019-02-24T07:56:09.066Z,9.60
2019-02-24T07:57:09.077Z,8.60
2019-02-24T07:58:09.033Z,8.60
2019-02-24T07:59:09.019Z,9.60
2019-02-24T08:00:09.029Z,9.40
2019-02-24T08:01:09.001Z,11.00
2019-02-24T08:02:09.013Z,9.90
2019-02-24T08:03:08.998Z,8.90
2019-02-24T08:04:08.966Z,8.50
2019-02-24T08:05:08.966Z,7.90
2019-02-24T08:06:08.938Z,7.50
2019-02-24T08:07:08.970Z,7.20
2019-02-24T08:08:16.194Z,7.50
2019-02-24T08:09:09.907Z,7.20
2019-02-24T08:10:08.897Z,7.80
2019-02-24T08:11:08.885Z,8.40
2019-02-24T08:12:08.878Z,8.00
2019-02-24T08:13:08.890Z,8.50
2019-02-24T08:14:08.851Z,7.80
2019-02-24T08:15:08.839Z,7.80
2019-02-24T08:16:08.850Z,8.20
2019-02-24T08:17:08.824Z,6.80
2019-02-24T08:18:08.853Z,6.80
2019-02-24T08:19:08.803Z,7.00
2019-02-24T08:20:08.785Z,8.00
2019-02-24T08:21:08.808Z,7.20
2019-02-24T08:22:08.769Z,7.20
2019-02-24T08:23:08.782Z,7.50
2019-02-24T08:24:08.758Z,7.10
2019-02-24T08:25:08.741Z,7.40
2019-02-24T08:26:08.717Z,7.10
2019-02-24T08:27:08.714Z,7.60
2019-02-24T08:28:08.716Z,8.50
2019-02-24T08:29:08.698Z,9.80
2019-02-24T08:30:08.689Z,8.70
2019-02-24T08:31:08.668Z,7.80
2019-02-24T08:32:08.657Z,7.70
2019-02-24T08:33:08.675Z,6.50
2019-02-24T08:34:08.653Z,7.50
2019-02-24T08:35:08.625Z,6.70
2019-02-24T08:36:08.609Z,7.20
2019-02-24T08:37:08.606Z,7.60
2019-02-24T08:38:08.591Z,8.70
2019-02-24T08:39:08.599Z,8.00
2019-02-24T08:40:08.561Z,9.70
2019-02-24T08:41:08.567Z,9.80
2019-02-24T08:42:08.551Z,8.40
2019-02-24T08:43:08.540Z,6.80
2019-02-24T08:44:08.580Z,8.60
2019-02-24T08:45:08.649Z,7.90
2019-02-24T08:46:08.519Z,6.60
2019-02-24T08:47:08.530Z,8.20
2019-02-24T08:48:08.474Z,9.10
2019-02-24T08:49:08.471Z,7.50
2019-02-24T08:50:08.473Z,7.40
2019-02-24T08:51:08.455Z,7.10
2019-02-24T08:52:08.430Z,7.90
2019-02-24T08:53:08.432Z,7.60
2019-02-24T08:54:08.436Z,6.80
2019-02-24T08:55:08.416Z,6.40
2019-02-24T08:56:08.398Z,7.40
2019-02-24T08:57:08.391Z,7.20
2019-02-24T08:58:08.386Z,7.20
2019-02-24T08:59:08.450Z,7.80
2019-02-24T09:00:08.365Z,7.40
2019-02-24T09:01:08.353Z,6.90
2019-02-24T09:02:08.332Z,7.60
2019-02-24T09:03:08.321Z,7.70
2019-02-24T09:04:08.341Z,6.50
2019-02-24T09:05:08.298Z,7.40
2019-02-24T09:06:08.296Z,7.40
2019-02-24T09:07:08.630Z,6.80
2019-02-24T09:08:08.271Z,7.60
2019-02-24T09:09:08.252Z,7.10
2019-02-24T09:10:08.272Z,7.20
2019-02-24T09:11:08.245Z,7.90
2019-02-24T09:12:08.216Z,7.60
2019-02-24T09:13:08.318Z,6.70
2019-02-24T09:14:08.214Z,7.50
2019-02-24T09:15:08.209Z,7.70
2019-02-24T09:16:08.180Z,7.40
2019-02-24T09:17:08.158Z,7.80
2019-02-24T09:18:08.196Z,6.90
2019-02-24T09:19:08.155Z,6.50
2019-02-24T09:20:08.146Z,7.60
2019-02-24T09:21:08.134Z,6.60
2019-02-24T09:22:08.104Z,6.90
2019-02-24T09:23:08.090Z,7.10
2019-02-24T09:24:08.086Z,9.30
2019-02-24T09:25:08.092Z,7.00
2019-02-24T09:26:08.078Z,7.60
2019-02-24T09:27:08.055Z,6.80
2019-02-24T09:28:08.034Z,6.40
2019-02-24T09:29:08.024Z,6.40
2019-02-24T09:30:08.018Z,7.10
2019-02-24T09:31:08.026Z,7.50
2019-02-24T09:32:08.005Z,6.40
2019-02-24T09:33:07.987Z,7.20
2019-02-24T09:34:07.984Z,7.30
2019-02-24T09:35:07.977Z,6.40
2019-02-24T09:36:08.002Z,7.70
2019-02-24T09:37:07.946Z,7.20
2019-02-24T09:38:07.935Z,6.80
2019-02-24T09:39:07.919Z,6.20
2019-02-24T09:40:07.906Z,6.90
2019-02-24T09:41:07.908Z,7.10
2019-02-24T09:42:07.921Z,7.40
2019-02-24T09:43:07.889Z,6.40
2019-02-24T09:44:07.878Z,6.60
2019-02-24T09:45:07.859Z,7.50
2019-02-24T09:46:07.868Z,6.20
2019-02-24T09:47:07.838Z,7.50
2019-02-24T09:48:07.827Z,7.50
2019-02-24T09:49:07.809Z,6.70
2019-02-24T09:50:07.812Z,6.10
2019-02-24T09:51:07.818Z,6.40
2019-02-24T09:52:07.781Z,6.70
2019-02-24T09:53:07.765Z,6.10
2019-02-24T09:54:07.755Z,6.50
2019-02-24T09:55:07.744Z,7.00
2019-02-24T09:56:07.766Z,7.40
2019-02-24T09:57:07.740Z,6.40
2019-02-24T09:58:07.719Z,7.60
2019-02-24T09:59:07.701Z,6.00
2019-02-24T10:00:07.706Z,7.40
2019-02-24T10:01:10.649Z,6.50
2019-02-24T10:02:07.680Z,6.60
2019-02-24T10:03:07.670Z,5.90
2019-02-24T10:04:07.648Z,7.10
2019-02-24T10:05:07.687Z,6.20
2019-02-24T10:06:07.654Z,7.00
2019-02-24T10:07:07.632Z,8.20
2019-02-24T10:08:08.165Z,5.40
2019-02-24T10:09:07.580Z,7.90
2019-02-24T10:10:07.573Z,5.80
2019-02-24T10:11:07.561Z,6.00
2019-02-24T10:12:07.587Z,7.10
2019-02-24T10:13:07.564Z,6.20
2019-02-24T10:14:07.526Z,6.30
2019-02-24T10:15:07.539Z,5.80
2019-02-24T10:16:07.519Z,6.10
2019-02-24T10:17:07.535Z,6.20
2019-02-24T10:18:07.501Z,6.90
2019-02-24T10:19:07.475Z,5.70
2019-02-24T10:20:07.471Z,6.00
2019-02-24T10:21:07.469Z,6.40
2019-02-24T10:22:07.451Z,6.70
2019-02-24T10:23:07.468Z,7.10
2019-02-24T10:24:07.418Z,6.00
2019-02-24T10:25:07.415Z,5.20
2019-02-24T10:26:07.394Z,6.80
2019-02-24T10:27:07.392Z,5.10
2019-02-24T10:28:07.398Z,6.50
2019-02-24T10:29:07.357Z,6.20
2019-02-24T10:30:07.360Z,6.50
2019-02-24T10:31:07.343Z,6.20
2019-02-24T10:32:07.371Z,7.90
2019-02-24T10:33:07.334Z,7.00
2019-02-24T10:34:07.735Z,6.50
2019-02-24T10:35:07.300Z,5.90
2019-02-24T10:36:07.302Z,7.60
2019-02-24T10:37:07.280Z,6.80
2019-02-24T10:38:07.296Z,6.40
2019-02-24T10:39:07.254Z,6.70
2019-02-24T10:40:07.253Z,7.60
2019-02-24T10:41:07.254Z,7.30
2019-02-24T10:42:07.230Z,6.90
2019-02-24T10:43:07.252Z,6.70
2019-02-24T10:44:07.220Z,8.20
2019-02-24T10:45:07.187Z,7.20
2019-02-24T10:46:07.186Z,5.00
2019-02-24T10:47:07.164Z,6.70
2019-02-24T10:48:13.804Z,6.30
2019-02-24T10:49:08.177Z,5.50
2019-02-24T10:50:07.127Z,7.20
2019-02-24T10:51:07.123Z,6.20
2019-02-24T10:52:07.118Z,5.50
2019-02-24T10:53:07.150Z,7.30
2019-02-24T10:54:07.100Z,5.90
2019-02-24T10:55:07.108Z,5.90
2019-02-24T10:56:07.078Z,5.50
2019-02-24T10:57:09.879Z,6.00
2019-02-24T10:58:08.059Z,5.10
2019-02-24T10:59:07.073Z,6.70
2019-02-24T11:00:07.043Z,5.90
2019-02-24T11:01:07.051Z,5.80
2019-02-24T11:02:07.005Z,6.40
2019-02-24T11:03:06.986Z,7.00
2019-02-24T11:04:07.002Z,7.20
2019-02-24T11:05:06.964Z,6.20
2019-02-24T11:06:06.952Z,6.20
2019-02-24T11:07:06.954Z,6.70
2019-02-24T11:08:06.978Z,5.60
2019-02-24T11:09:06.945Z,6.60
2019-02-24T11:10:06.939Z,6.40
2019-02-24T11:11:06.923Z,5.30
2019-02-24T11:12:08.824Z,6.30
2019-02-24T11:13:06.881Z,7.30
2019-02-24T11:14:06.873Z,7.70
2019-02-24T11:15:06.885Z,6.50
2019-02-24T11:16:06.854Z,5.40
2019-02-24T11:17:06.840Z,6.00
2019-02-24T11:18:06.834Z,7.10
2019-02-24T11:19:06.824Z,7.00
2019-02-24T11:20:06.832Z,5.50
2019-02-24T11:21:06.800Z,6.60
2019-02-24T11:22:06.801Z,5.60
2019-02-24T11:23:06.830Z,6.80
2019-02-24T11:24:06.770Z,5.70
2019-02-24T11:25:06.785Z,6.50
2019-02-24T11:26:06.745Z,6.20
2019-02-24T11:27:06.728Z,6.10
2019-02-24T11:28:06.717Z,5.90
2019-02-24T11:29:06.704Z,6.40
2019-02-24T11:30:06.693Z,6.80
2019-02-24T11:31:06.704Z,7.60
2019-02-24T11:32:06.682Z,6.70
2019-02-24T11:33:06.660Z,5.60
2019-02-24T11:34:06.644Z,6.50
2019-02-24T11:35:06.646Z,6.20
2019-02-24T11:36:06.660Z,6.40
2019-02-24T11:37:06.617Z,6.50
2019-02-24T11:38:06.609Z,6.60
2019-02-24T11:39:06.590Z,5.90
2019-02-24T11:40:06.592Z,6.80
2019-02-24T11:41:06.587Z,5.70
2019-02-24T11:42:06.557Z,6.30
2019-02-24T11:43:06.547Z,6.60
2019-02-24T11:44:06.537Z,7.00
2019-02-24T11:45:06.538Z,7.00
2019-02-24T11:46:06.546Z,5.70
2019-02-24T11:47:06.507Z,6.60
2019-02-24T11:48:06.520Z,6.70
2019-02-24T11:49:06.487Z,6.10
2019-02-24T11:50:06.471Z,5.80
2019-02-24T11:51:06.464Z,5.30
2019-02-24T11:52:06.479Z,7.90
2019-02-24T11:53:06.440Z,5.70
2019-02-24T11:54:06.426Z,6.50
2019-02-24T11:55:06.443Z,6.70
2019-02-24T11:56:06.434Z,5.70
2019-02-24T11:57:06.421Z,5.60
2019-02-24T11:58:06.392Z,7.10
2019-02-24T11:59:06.390Z,5.30
2019-02-24T12:00:06.421Z,5.50
2019-02-24T12:01:06.349Z,5.60
2019-02-24T12:02:06.358Z,5.10
2019-02-24T12:03:06.337Z,5.00
2019-02-24T12:04:06.327Z,5.70
2019-02-24T12:05:06.307Z,5.70
2019-02-24T12:06:06.291Z,5.30
2019-02-24T12:07:06.302Z,6.60
2019-02-24T12:08:06.272Z,6.30
2019-02-24T12:09:06.255Z,5.40
2019-02-24T12:10:06.251Z,5.60
2019-02-24T12:11:06.240Z,6.60
2019-02-24T12:12:06.234Z,6.50
2019-02-24T12:13:06.232Z,5.40
2019-02-24T12:14:06.212Z,5.60
2019-02-24T12:15:06.194Z,6.60
2019-02-24T12:16:06.189Z,5.20
2019-02-24T12:17:06.190Z,5.40
2019-02-24T12:18:06.183Z,4.90
2019-02-24T12:19:06.144Z,5.60
2019-02-24T12:20:06.141Z,4.70
2019-02-24T12:21:06.125Z,6.20
2019-02-24T12:22:06.113Z,5.40
2019-02-24T12:23:06.125Z,5.70
2019-02-24T12:24:06.135Z,5.80
2019-02-24T12:25:06.098Z,4.80
2019-02-24T12:26:06.081Z,5.80
2019-02-24T12:27:06.057Z,6.40
2019-02-24T12:28:06.094Z,7.00
2019-02-24T12:29:06.034Z,5.80
2019-02-24T12:30:06.025Z,5.30
2019-02-24T12:31:06.019Z,5.90
2019-02-24T12:32:06.241Z,6.30
2019-02-24T12:33:06.008Z,5.30
2019-02-24T12:34:05.986Z,6.40
2019-02-24T12:35:05.986Z,5.50
2019-02-24T12:36:05.967Z,5.50
2019-02-24T12:37:05.958Z,6.20
2019-02-24T12:38:05.965Z,6.60
2019-02-24T12:39:06.103Z,6.00
2019-02-24T12:40:05.925Z,6.60
2019-02-24T12:41:05.923Z,5.80
2019-02-24T12:42:05.900Z,5.10
2019-02-24T12:43:05.958Z,5.40
2019-02-24T12:44:05.870Z,4.80
2019-02-24T12:45:05.871Z,6.00
2019-02-24T12:46:05.845Z,6.20
2019-02-24T12:47:05.840Z,5.10
2019-02-24T12:48:05.857Z,5.20
2019-02-24T12:49:05.845Z,4.60
2019-02-24T12:50:05.809Z,5.20
2019-02-24T12:51:05.793Z,6.20
2019-02-24T12:52:05.787Z,6.70
2019-02-24T12:53:05.773Z,5.50
2019-02-24T12:54:05.793Z,7.70
2019-02-24T12:55:05.753Z,8.00
2019-02-24T12:56:05.739Z,5.00
2019-02-24T12:57:05.746Z,4.70
2019-02-24T12:58:07.443Z,5.40
2019-02-24T12:59:05.704Z,5.20
2019-02-24T13:00:05.758Z,4.70
2019-02-24T13:01:05.684Z,5.10
2019-02-24T13:02:06.091Z,4.80
2019-02-24T13:03:05.662Z,5.30